Time;durP1;ratioP1;P1;durP2;ratioP2;P2;SDS_P1;SDS_P2;PMS_P1;PMS_P2;Temp;Humidity;BMP_temperature;BMP_pressure;BME280_temperature;BME280_humidity;BME280_pressure;Samples;Min_cycle;Max_cycle;Signal;HPM_P1;HPM_P2
2023/08/04 00:01:26;;;;;;;1.17;0.63;;;;;;;;;;4995147;28;20363;-77
2023/08/04 00:03:52;;;;;;;1.35;0.60;;;;;;;;;;4995173;28;20485;-77
2023/08/04 00:06:18;;;;;;;2.22;0.40;;;;;;;;;;4995086;28;20050;-76
2023/08/04 00:08:44;;;;;;;0.57;0.38;;;;;;;;;;4971938;28;20070;-77
2023/08/04 00:11:11;;;;;;;1.00;0.40;;;;;;;;;;4991120;28;20035;-77
2023/08/04 00:13:37;;;;;;;13.02;9.88;;;;;;;;;;4995094;28;20018;-77
2023/08/04 00:16:06;;;;;;;8.10;4.13;;;;;;;;;;4994903;28;20077;-76
2023/08/04 00:18:32;;;;;;;2.10;0.98;;;;;;;;;;4994679;28;20018;-76
2023/08/04 00:20:59;;;;;;;1.20;0.50;;;;;;;;;;4995366;28;20109;-76
2023/08/04 00:23:25;;;;;;;2.17;1.20;;;;;;;;;;4994498;28;20024;-76
2023/08/04 00:25:51;;;;;;;1.73;0.77;;;;;;;;;;4994690;28;20061;-76
2023/08/04 00:28:17;;;;;;;1.95;0.60;;;;;;;;;;4994451;28;20023;-77
2023/08/04 00:30:43;;;;;;;1.25;0.47;;;;;;;;;;4997779;28;20482;-76
2023/08/04 00:33:09;;;;;;;1.42;0.32;;;;;;;;;;4994511;28;20026;-77
2023/08/04 00:35:35;;;;;;;1.27;0.70;;;;;;;;;;4994429;28;20516;-77
2023/08/04 00:38:02;;;;;;;3.13;0.70;;;;;;;;;;4994192;28;20493;-77
2023/08/04 00:40:29;;;;;;;1.92;0.60;;;;;;;;;;4994809;28;20029;-76
2023/08/04 00:42:55;;;;;;;1.65;0.80;;;;;;;;;;4994578;28;20097;-75
2023/08/04 00:45:23;;;;;;;1.52;0.77;;;;;;;;;;4994251;28;20022;-76
2023/08/04 00:47:49;;;;;;;4.93;1.10;;;;;;;;;;4996148;28;20032;-76
2023/08/04 00:50:15;;;;;;;1.67;0.63;;;;;;;;;;4998074;28;20080;-77
2023/08/04 00:52:41;;;;;;;0.73;0.60;;;;;;;;;;5003817;28;20023;-77
2023/08/04 00:55:09;;;;;;;1.80;0.60;;;;;;;;;;5006230;28;20042;-77
2023/08/04 00:57:37;;;;;;;1.38;0.65;;;;;;;;;;5007358;28;20025;-76
2023/08/04 01:00:03;;;;;;;2.65;0.85;;;;;;;;;;5006057;28;20014;-76
2023/08/04 01:02:29;;;;;;;3.10;0.98;;;;;;;;;;4994356;28;20061;-77
2023/08/04 01:04:56;;;;;;;1.48;0.50;;;;;;;;;;4994379;28;20434;-77
2023/08/04 01:07:23;;;;;;;2.90;0.88;;;;;;;;;;4993819;28;20026;-76
2023/08/04 01:10:04;;;;;;;1.27;0.50;;;;;;;;;;4992711;28;20363;-77
2023/08/04 01:12:49;;;;;;;2.10;0.60;;;;;;;;;;4987211;28;20030;-77
2023/08/04 01:15:16;;;;;;;1.80;0.90;;;;;;;;;;4976690;28;20085;-78
2023/08/04 01:17:42;;;;;;;1.05;0.73;;;;;;;;;;4993970;28;20030;-76
2023/08/04 01:20:09;;;;;;;2.05;0.70;;;;;;;;;;4994827;28;20042;-76
2023/08/04 01:22:35;;;;;;;1.48;0.70;;;;;;;;;;5001965;28;20023;-76
2023/08/04 01:25:01;;;;;;;2.78;0.63;;;;;;;;;;5007708;28;20034;-76
2023/08/04 01:27:27;;;;;;;1.63;0.70;;;;;;;;;;4996125;28;20037;-76
2023/08/04 01:29:53;;;;;;;2.50;0.75;;;;;;;;;;4995499;28;20033;-77
2023/08/04 01:32:19;;;;;;;1.02;0.45;;;;;;;;;;4996969;28;20030;-77
2023/08/04 01:34:49;;;;;;;1.85;0.77;;;;;;;;;;4997724;28;20026;-76
2023/08/04 01:37:15;;;;;;;1.33;0.52;;;;;;;;;;4993380;28;20483;-77
2023/08/04 01:39:42;;;;;;;1.15;0.68;;;;;;;;;;4993887;28;20094;-77
2023/08/04 01:42:08;;;;;;;1.60;0.50;;;;;;;;;;4993924;28;20026;-77
2023/08/04 01:44:34;;;;;;;3.15;0.80;;;;;;;;;;4993728;28;20034;-78
2023/08/04 01:47:00;;;;;;;3.70;0.77;;;;;;;;;;4993785;28;20022;-77
2023/08/04 01:49:26;;;;;;;0.88;0.50;;;;;;;;;;4996240;28;20089;-78
2023/08/04 01:51:52;;;;;;;2.25;0.60;;;;;;;;;;5000675;28;20022;-79
2023/08/04 01:54:18;;;;;;;4.00;0.70;;;;;;;;;;4999960;28;20085;-79
2023/08/04 01:56:44;;;;;;;1.55;0.85;;;;;;;;;;4998967;28;20104;-78
2023/08/04 01:59:10;;;;;;;1.35;0.70;;;;;;;;;;5014958;28;20253;-78
2023/08/04 02:01:36;;;;;;;2.40;0.52;;;;;;;;;;4999162;28;20029;-78
2023/08/04 02:04:02;;;;;;;2.80;0.80;;;;;;;;;;4996139;28;20030;-78
2023/08/04 02:06:28;;;;;;;1.27;0.63;;;;;;;;;;4994995;28;20172;-78
2023/08/04 02:08:54;;;;;;;1.58;0.50;;;;;;;;;;4995434;28;20483;-78
2023/08/04 02:11:20;;;;;;;1.88;0.70;;;;;;;;;;4993957;28;20050;-77
2023/08/04 02:13:46;;;;;;;1.30;0.82;;;;;;;;;;5002240;28;20126;-77
2023/08/04 02:16:12;;;;;;;4.35;0.50;;;;;;;;;;4997482;28;20026;-78
2023/08/04 02:18:38;;;;;;;3.90;0.98;;;;;;;;;;4978297;28;20026;-77
2023/08/04 02:21:04;;;;;;;1.88;0.70;;;;;;;;;;5002315;28;20078;-78
2023/08/04 02:23:31;;;;;;;1.15;0.70;;;;;;;;;;4991100;28;20482;-77
2023/08/04 02:25:57;;;;;;;0.52;0.40;;;;;;;;;;5010058;28;20027;-78
2023/08/04 02:28:23;;;;;;;2.13;0.47;;;;;;;;;;5006392;28;20141;-78
2023/08/04 02:30:49;;;;;;;0.50;0.40;;;;;;;;;;5000931;28;20018;-77
2023/08/04 02:33:15;;;;;;;2.05;0.65;;;;;;;;;;4975643;28;20085;-78
2023/08/04 02:35:42;;;;;;;0.98;0.63;;;;;;;;;;4993249;28;20094;-78
2023/08/04 02:38:08;;;;;;;1.80;0.50;;;;;;;;;;4992565;28;20073;-78
2023/08/04 02:40:37;;;;;;;1.30;0.60;;;;;;;;;;4992858;28;20018;-78
2023/08/04 02:43:03;;;;;;;2.17;0.52;;;;;;;;;;4992030;28;20022;-78
2023/08/04 02:45:29;;;;;;;1.55;0.60;;;;;;;;;;4992235;28;20050;-78
2023/08/04 02:47:55;;;;;;;3.00;0.85;;;;;;;;;;4992566;28;20046;-78
2023/08/04 02:50:21;;;;;;;0.52;0.50;;;;;;;;;;4991950;28;20061;-77
2023/08/04 02:52:47;;;;;;;1.17;0.60;;;;;;;;;;4992037;28;20447;-77
2023/08/04 02:55:13;;;;;;;1.55;0.70;;;;;;;;;;4991796;28;20177;-77
2023/08/04 02:57:39;;;;;;;0.95;0.65;;;;;;;;;;4974086;28;20089;-78
2023/08/04 03:00:09;;;;;;;0.55;0.50;;;;;;;;;;4993091;28;20433;-79
2023/08/04 03:02:35;;;;;;;2.47;0.60;;;;;;;;;;4994815;28;20022;-79
2023/08/04 03:05:02;;;;;;;1.38;0.60;;;;;;;;;;4993546;28;20081;-78
2023/08/04 03:07:28;;;;;;;1.25;0.80;;;;;;;;;;4992493;28;20513;-78
2023/08/04 03:09:54;;;;;;;0.75;0.63;;;;;;;;;;4990302;28;20026;-76
2023/08/04 03:12:20;;;;;;;17.77;10.43;;;;;;;;;;4992373;28;20053;-78
2023/08/04 03:14:46;;;;;;;3.38;0.82;;;;;;;;;;4992259;28;20033;-76
2023/08/04 03:17:12;;;;;;;2.45;0.73;;;;;;;;;;4991199;28;20026;-77
2023/08/04 03:19:38;;;;;;;1.83;0.75;;;;;;;;;;4991559;28;20445;-77
2023/08/04 03:22:04;;;;;;;6.78;1.98;;;;;;;;;;4991643;28;20027;-77
2023/08/04 03:24:31;;;;;;;4.70;1.60;;;;;;;;;;4991744;28;20504;-77
2023/08/04 03:26:57;;;;;;;3.83;2.28;;;;;;;;;;4993788;28;20434;-78
2023/08/04 03:29:23;;;;;;;1.63;0.75;;;;;;;;;;4982076;28;20057;-77
2023/08/04 03:31:49;;;;;;;1.45;1.00;;;;;;;;;;5000248;28;20022;-77
2023/08/04 03:34:15;;;;;;;2.22;0.90;;;;;;;;;;4983538;28;20174;-77
2023/08/04 03:36:41;;;;;;;3.00;1.20;;;;;;;;;;4996801;28;20058;-77
2023/08/04 03:39:07;;;;;;;3.35;1.00;;;;;;;;;;4990784;28;20660;-77
2023/08/04 03:41:33;;;;;;;1.90;0.90;;;;;;;;;;4991110;28;20031;-77
2023/08/04 03:43:59;;;;;;;4.00;0.93;;;;;;;;;;4992121;28;20022;-77
2023/08/04 03:46:25;;;;;;;1.83;1.00;;;;;;;;;;4991428;28;20085;-77
2023/08/04 03:48:51;;;;;;;2.53;1.15;;;;;;;;;;4970125;28;20057;-77
2023/08/04 03:51:17;;;;;;;2.35;1.25;;;;;;;;;;4991209;28;20054;-77
2023/08/04 03:53:44;;;;;;;2.92;1.00;;;;;;;;;;4990890;28;20022;-77
2023/08/04 03:56:10;;;;;;;2.33;0.80;;;;;;;;;;4973268;28;20118;-77
2023/08/04 03:58:36;;;;;;;4.25;1.40;;;;;;;;;;4989886;28;20113;-77
2023/08/04 04:01:02;;;;;;;1.50;0.77;;;;;;;;;;4973837;28;20018;-76
2023/08/04 04:03:28;;;;;;;3.40;1.30;;;;;;;;;;4991260;28;20023;-77
2023/08/04 04:05:54;;;;;;;1.63;0.75;;;;;;;;;;4976817;28;20072;-77
2023/08/04 04:08:20;;;;;;;2.13;0.77;;;;;;;;;;4990949;28;20034;-77
2023/08/04 04:10:47;;;;;;;2.28;0.80;;;;;;;;;;4991538;28;20057;-78
2023/08/04 04:13:13;;;;;;;2.42;0.70;;;;;;;;;;4991675;28;20406;-78
2023/08/04 04:15:39;;;;;;;2.40;0.73;;;;;;;;;;4992142;28;20077;-79
2023/08/04 04:18:05;;;;;;;0.52;0.47;;;;;;;;;;4991667;28;20027;-79
2023/08/04 04:20:31;;;;;;;1.92;0.77;;;;;;;;;;4992584;28;20029;-78
2023/08/04 04:22:57;;;;;;;3.92;1.00;;;;;;;;;;4992848;28;20478;-78
2023/08/04 04:25:23;;;;;;;0.60;0.60;;;;;;;;;;4991864;28;20029;-78
2023/08/04 04:27:49;;;;;;;1.10;0.85;;;;;;;;;;4975835;28;20478;-78
2023/08/04 04:30:15;;;;;;;0.95;0.60;;;;;;;;;;4995603;28;20033;-77
2023/08/04 04:32:41;;;;;;;2.25;0.68;;;;;;;;;;4995253;28;20026;-78
2023/08/04 04:35:07;;;;;;;1.08;0.60;;;;;;;;;;4995367;28;20482;-78
2023/08/04 04:37:33;;;;;;;2.25;0.68;;;;;;;;;;4994623;28;20417;-77
2023/08/04 04:39:59;;;;;;;1.17;0.68;;;;;;;;;;4994763;28;20021;-78
2023/08/04 04:42:25;;;;;;;2.28;0.77;;;;;;;;;;4994968;28;20026;-76
2023/08/04 04:44:51;;;;;;;1.83;0.68;;;;;;;;;;4998885;28;20030;-77
2023/08/04 04:47:18;;;;;;;3.08;0.77;;;;;;;;;;4983455;28;20030;-77
2023/08/04 04:49:44;;;;;;;2.80;0.90;;;;;;;;;;5001513;28;20045;-78
2023/08/04 04:52:14;;;;;;;1.95;0.80;;;;;;;;;;5002892;28;20027;-76
2023/08/04 04:54:40;;;;;;;1.13;0.77;;;;;;;;;;4976419;28;20101;-77
2023/08/04 04:57:07;;;;;;;2.03;0.60;;;;;;;;;;4974063;28;20029;-76
2023/08/04 04:59:33;;;;;;;4.93;0.70;;;;;;;;;;4993970;28;20014;-77
2023/08/04 05:01:59;;;;;;;0.95;0.80;;;;;;;;;;4994511;28;20032;-75
2023/08/04 05:04:25;;;;;;;1.25;0.73;;;;;;;;;;4994581;28;20018;-77
2023/08/04 05:06:51;;;;;;;2.95;0.70;;;;;;;;;;4994144;28;20118;-77
2023/08/04 05:09:17;;;;;;;1.85;0.70;;;;;;;;;;4986467;28;20506;-76
2023/08/04 05:11:43;;;;;;;2.85;1.00;;;;;;;;;;4976639;28;20026;-76
2023/08/04 05:14:09;;;;;;;2.13;0.65;;;;;;;;;;4976830;28;20121;-75
2023/08/04 05:16:35;;;;;;;2.72;0.63;;;;;;;;;;4993664;28;20482;-75
2023/08/04 05:19:01;;;;;;;1.13;0.80;;;;;;;;;;4993475;28;20022;-75
2023/08/04 05:21:27;;;;;;;0.98;0.60;;;;;;;;;;4993504;28;20018;-75
2023/08/04 05:23:53;;;;;;;1.45;0.70;;;;;;;;;;4993696;28;20018;-75
2023/08/04 05:26:19;;;;;;;2.70;0.75;;;;;;;;;;4992194;28;20042;-74
2023/08/04 05:28:45;;;;;;;1.65;1.02;;;;;;;;;;4993293;28;20034;-76
2023/08/04 05:31:11;;;;;;;2.20;1.00;;;;;;;;;;4976290;28;20361;-76
2023/08/04 05:33:37;;;;;;;2.38;1.20;;;;;;;;;;4993867;28;20023;-76
2023/08/04 05:36:03;;;;;;;2.53;0.80;;;;;;;;;;4994485;28;20026;-76
2023/08/04 05:38:29;;;;;;;2.05;0.80;;;;;;;;;;4978749;28;20108;-77
2023/08/04 05:40:55;;;;;;;2.58;0.93;;;;;;;;;;4976011;28;20501;-76
2023/08/04 05:43:23;;;;;;;1.30;0.73;;;;;;;;;;4976572;28;20030;-77
2023/08/04 05:45:50;;;;;;;1.00;0.70;;;;;;;;;;4992089;28;20201;-77
2023/08/04 05:48:16;;;;;;;2.15;1.00;;;;;;;;;;4977679;28;20022;-76
2023/08/04 05:50:43;;;;;;;2.50;0.73;;;;;;;;;;4976209;28;20117;-76
2023/08/04 05:53:09;;;;;;;1.27;0.60;;;;;;;;;;4997970;28;20033;-75
2023/08/04 05:55:36;;;;;;;1.23;0.77;;;;;;;;;;4974935;28;20034;-75
2023/08/04 05:58:02;;;;;;;0.80;0.80;;;;;;;;;;4995276;28;20014;-73
2023/08/04 06:00:29;;;;;;;2.20;0.70;;;;;;;;;;4994021;28;20101;-75
2023/08/04 06:02:56;;;;;;;2.47;0.90;;;;;;;;;;4997912;28;20093;-75
2023/08/04 06:05:22;;;;;;;2.58;0.85;;;;;;;;;;5000675;28;20033;-76
2023/08/04 06:07:48;;;;;;;2.35;0.80;;;;;;;;;;5003218;28;20046;-75
2023/08/04 06:10:16;;;;;;;2.42;0.90;;;;;;;;;;4995670;28;20045;-76
2023/08/04 06:12:42;;;;;;;4.15;1.00;;;;;;;;;;4994580;28;20101;-75
2023/08/04 06:15:08;;;;;;;4.72;1.02;;;;;;;;;;4991370;28;20548;-75
2023/08/04 06:17:34;;;;;;;1.98;1.15;;;;;;;;;;4992254;28;20019;-75
2023/08/04 06:20:00;;;;;;;1.13;0.77;;;;;;;;;;4992809;28;20026;-74
2023/08/04 06:22:26;;;;;;;3.00;1.08;;;;;;;;;;4992640;28;20433;-75
2023/08/04 06:24:52;;;;;;;3.88;0.75;;;;;;;;;;4991152;28;20030;-73
2023/08/04 06:27:18;;;;;;;1.27;0.60;;;;;;;;;;4987871;28;20832;-73
2023/08/04 06:29:44;;;;;;;2.75;0.65;;;;;;;;;;4991350;28;20028;-74
2023/08/04 06:32:10;;;;;;;1.35;0.60;;;;;;;;;;4992035;28;20082;-74
2023/08/04 06:34:36;;;;;;;4.30;0.90;;;;;;;;;;4990674;28;20034;-73
2023/08/04 06:37:03;;;;;;;3.22;1.20;;;;;;;;;;4992073;28;20022;-73
2023/08/04 06:39:29;;;;;;;2.20;0.82;;;;;;;;;;4992182;28;20023;-74
2023/08/04 06:41:54;;;;;;;3.35;0.95;;;;;;;;;;4992151;28;20066;-73
2023/08/04 06:44:21;;;;;;;2.75;0.68;;;;;;;;;;4991956;28;20030;-74
2023/08/04 06:46:47;;;;;;;5.35;1.25;;;;;;;;;;4991927;28;20025;-74
2023/08/04 06:49:13;;;;;;;2.53;0.85;;;;;;;;;;4991973;28;20022;-74
2023/08/04 06:51:39;;;;;;;1.25;0.65;;;;;;;;;;4991795;28;20029;-74
2023/08/04 06:54:05;;;;;;;2.17;0.85;;;;;;;;;;4991907;28;20049;-74
2023/08/04 06:56:31;;;;;;;1.05;0.70;;;;;;;;;;4991932;28;20030;-74
2023/08/04 06:58:57;;;;;;;3.97;1.23;;;;;;;;;;4990554;28;20033;-74
2023/08/04 07:01:23;;;;;;;3.05;1.70;;;;;;;;;;4991294;28;20026;-74
2023/08/04 07:03:49;;;;;;;2.35;1.75;;;;;;;;;;4991556;28;20026;-74
2023/08/04 07:06:15;;;;;;;1.50;1.13;;;;;;;;;;4990487;28;20494;-74
2023/08/04 07:08:41;;;;;;;2.45;1.10;;;;;;;;;;4986298;28;20122;-74
2023/08/04 07:11:15;;;;;;;4.57;1.35;;;;;;;;;;4989107;28;20031;-74
2023/08/04 07:13:41;;;;;;;1.77;1.58;;;;;;;;;;4991739;28;20083;-74
2023/08/04 07:16:07;;;;;;;2.60;1.15;;;;;;;;;;4991367;28;20026;-74
2023/08/04 07:18:33;;;;;;;1.35;0.95;;;;;;;;;;4990287;28;20077;-74
2023/08/04 07:21:09;;;;;;;2.50;1.67;;;;;;;;;;4991521;28;20026;-74
2023/08/04 07:23:35;;;;;;;3.58;1.20;;;;;;;;;;4990272;28;20390;-74
2023/08/04 07:26:02;;;;;;;6.68;3.72;;;;;;;;;;4991267;28;20037;-74
2023/08/04 07:28:28;;;;;;;2.38;1.08;;;;;;;;;;4991414;28;20026;-75
2023/08/04 07:30:54;;;;;;;1.45;0.95;;;;;;;;;;4991718;28;20027;-74
2023/08/04 07:33:22;;;;;;;3.95;1.27;;;;;;;;;;4993449;28;20788;-75
2023/08/04 07:35:55;;;;;;;1.63;1.10;;;;;;;;;;5000998;28;20022;-75
2023/08/04 07:38:21;;;;;;;1.67;0.85;;;;;;;;;;4995668;28;20161;-75
2023/08/04 07:40:47;;;;;;;1.75;1.00;;;;;;;;;;4991648;28;20019;-75
2023/08/04 07:43:13;;;;;;;1.38;0.82;;;;;;;;;;4991367;28;20033;-74
2023/08/04 07:45:40;;;;;;;1.65;1.17;;;;;;;;;;4991547;28;20134;-74
2023/08/04 07:48:06;;;;;;;0.73;0.70;;;;;;;;;;4991014;28;20029;-75
2023/08/04 07:50:32;;;;;;;2.25;0.90;;;;;;;;;;4991082;28;20057;-74
2023/08/04 07:52:58;;;;;;;2.72;1.45;;;;;;;;;;4973729;28;20061;-75
2023/08/04 07:55:24;;;;;;;3.40;1.20;;;;;;;;;;4973655;28;20490;-75
2023/08/04 07:57:53;;;;;;;5.80;2.50;;;;;;;;;;4991031;28;20018;-75
2023/08/04 08:00:19;;;;;;;5.32;1.63;;;;;;;;;;4991512;28;20018;-74
2023/08/04 08:02:45;;;;;;;3.58;1.10;;;;;;;;;;4974026;28;20105;-74
2023/08/04 08:05:11;;;;;;;5.82;2.50;;;;;;;;;;4994445;28;20030;-74
2023/08/04 08:07:37;;;;;;;11.02;1.70;;;;;;;;;;4994488;28;20053;-74
2023/08/04 08:10:03;;;;;;;3.97;1.60;;;;;;;;;;4993333;28;20026;-75
2023/08/04 08:12:29;;;;;;;2.08;1.20;;;;;;;;;;4993384;28;20026;-75
2023/08/04 08:14:55;;;;;;;4.72;1.35;;;;;;;;;;4993487;28;20149;-75
2023/08/04 08:17:22;;;;;;;4.55;1.20;;;;;;;;;;4975651;28;20382;-75
2023/08/04 08:19:48;;;;;;;4.75;1.27;;;;;;;;;;4993581;28;20030;-75
2023/08/04 08:22:14;;;;;;;3.25;0.85;;;;;;;;;;4993617;28;20098;-75
2023/08/04 08:24:40;;;;;;;5.05;1.40;;;;;;;;;;4994699;28;20536;-75
2023/08/04 08:27:06;;;;;;;2.47;0.98;;;;;;;;;;4993250;28;20034;-75
2023/08/04 08:29:32;;;;;;;2.75;1.08;;;;;;;;;;4995180;28;20023;-74
2023/08/04 08:31:58;;;;;;;2.10;0.90;;;;;;;;;;4977328;28;20621;-75
2023/08/04 08:34:24;;;;;;;1.60;1.02;;;;;;;;;;4975808;28;20047;-74
2023/08/04 08:36:50;;;;;;;2.17;0.95;;;;;;;;;;4996096;28;20029;-75
2023/08/04 08:39:16;;;;;;;2.90;2.08;;;;;;;;;;5002416;28;20022;-75
2023/08/04 08:41:42;;;;;;;10.45;4.53;;;;;;;;;;5004848;28;20025;-75
2023/08/04 08:44:09;;;;;;;9.82;5.22;;;;;;;;;;5004844;28;20030;-75
2023/08/04 08:46:35;;;;;;;6.47;3.15;;;;;;;;;;5000720;28;20110;-74
2023/08/04 08:49:02;;;;;;;5.07;2.95;;;;;;;;;;4994251;28;20076;-74
2023/08/04 08:51:30;;;;;;;0.85;0.80;;;;;;;;;;4994375;28;20069;-74
2023/08/04 08:53:57;;;;;;;2.65;1.05;;;;;;;;;;4994122;28;20019;-74
2023/08/04 08:56:25;;;;;;;1.77;1.02;;;;;;;;;;4976280;28;20030;-74
2023/08/04 08:58:51;;;;;;;1.15;0.63;;;;;;;;;;4993991;28;20026;-74
2023/08/04 09:01:17;;;;;;;1.15;0.80;;;;;;;;;;4976359;28;20057;-74
2023/08/04 09:03:44;;;;;;;2.53;1.20;;;;;;;;;;4976198;28;20042;-75
2023/08/04 09:06:10;;;;;;;2.10;1.20;;;;;;;;;;4976263;28;20048;-74
2023/08/04 09:08:36;;;;;;;2.47;0.75;;;;;;;;;;4989402;28;20027;-75
2023/08/04 09:11:02;;;;;;;3.42;1.75;;;;;;;;;;4990124;28;20102;-74
2023/08/04 09:13:28;;;;;;;2.03;1.20;;;;;;;;;;4993722;28;20033;-74
2023/08/04 09:15:56;;;;;;;1.23;0.70;;;;;;;;;;4992788;28;20026;-76
2023/08/04 09:18:29;;;;;;;1.52;0.75;;;;;;;;;;4975958;28;20113;-74
2023/08/04 09:20:59;;;;;;;1.10;0.73;;;;;;;;;;4993964;28;20101;-75
2023/08/04 09:23:25;;;;;;;2.95;0.98;;;;;;;;;;4993157;28;20072;-75
2023/08/04 09:25:55;;;;;;;1.05;0.63;;;;;;;;;;4993707;28;20126;-75
2023/08/04 09:28:21;;;;;;;1.77;1.17;;;;;;;;;;4993364;28;20756;-75
2023/08/04 09:31:02;;;;;;;2.30;1.40;;;;;;;;;;4992326;28;20026;-75
2023/08/04 09:33:28;;;;;;;3.75;1.70;;;;;;;;;;4972372;28;20023;-75
2023/08/04 09:36:02;;;;;;;1.60;1.50;;;;;;;;;;4993406;28;20418;-75
2023/08/04 09:38:28;;;;;;;2.38;1.10;;;;;;;;;;4985280;28;20044;-74
2023/08/04 09:41:04;;;;;;;4.13;1.30;;;;;;;;;;4993709;28;20024;-75
2023/08/04 09:43:30;;;;;;;1.45;1.20;;;;;;;;;;4990887;28;20101;-74
2023/08/04 09:46:03;;;;;;;9.80;7.30;;;;;;;;;;4993423;28;20390;-75
2023/08/04 09:48:29;;;;;;;3.67;2.13;;;;;;;;;;4985305;28;20022;-74
2023/08/04 09:51:08;;;;;;;2.03;1.40;;;;;;;;;;4993223;28;20076;-75
2023/08/04 09:53:44;;;;;;;2.80;1.40;;;;;;;;;;4991386;28;20383;-75
2023/08/04 09:56:18;;;;;;;3.67;1.70;;;;;;;;;;4993115;28;20121;-75
2023/08/04 09:58:44;;;;;;;2.38;1.20;;;;;;;;;;4992799;28;20022;-74
2023/08/04 10:01:10;;;;;;;1.63;1.25;;;;;;;;;;4992684;28;20037;-75
2023/08/04 10:03:43;;;;;;;2.88;1.40;;;;;;;;;;4975148;28;20113;-75
2023/08/04 10:06:09;;;;;;;6.72;1.63;;;;;;;;;;4992813;28;20034;-75
2023/08/04 10:08:36;;;;;;;2.20;1.33;;;;;;;;;;4988525;28;20097;-75
2023/08/04 10:11:03;;;;;;;2.08;1.30;;;;;;;;;;4989933;28;20026;-75
2023/08/04 10:13:33;;;;;;;1.17;1.08;;;;;;;;;;4992938;28;20084;-75
2023/08/04 10:16:00;;;;;;;1.48;0.95;;;;;;;;;;4993426;28;20545;-76
2023/08/04 10:18:26;;;;;;;4.80;1.50;;;;;;;;;;4986159;28;20018;-75
2023/08/04 10:20:53;;;;;;;7.25;2.45;;;;;;;;;;4977196;28;20018;-74
2023/08/04 10:23:19;;;;;;;4.93;2.78;;;;;;;;;;4993251;28;20030;-74
2023/08/04 10:25:54;;;;;;;4.95;3.22;;;;;;;;;;4991978;28;20093;-74
2023/08/04 10:28:20;;;;;;;5.63;2.63;;;;;;;;;;4974511;28;20022;-74
2023/08/04 10:30:46;;;;;;;5.55;3.80;;;;;;;;;;4975205;28;20022;-73
2023/08/04 10:33:12;;;;;;;4.28;2.60;;;;;;;;;;4991260;28;20031;-73
2023/08/04 10:35:57;;;;;;;4.22;2.40;;;;;;;;;;4992236;28;20140;-74
2023/08/04 10:38:24;;;;;;;2.05;1.88;;;;;;;;;;4991572;28;20026;-74
2023/08/04 10:41:04;;;;;;;2.95;2.10;;;;;;;;;;4974378;28;20026;-73
2023/08/04 10:43:30;;;;;;;4.28;2.60;;;;;;;;;;4989860;28;20466;-73
2023/08/04 10:46:05;;;;;;;12.27;2.03;;;;;;;;;;4991800;28;20053;-74
2023/08/04 10:48:36;;;;;;;2.90;1.58;;;;;;;;;;4984143;28;20019;-73
2023/08/04 10:51:02;;;;;;;4.68;1.77;;;;;;;;;;4991686;28;20030;-74
2023/08/04 10:53:29;;;;;;;2.22;1.83;;;;;;;;;;4991916;28;20038;-73
2023/08/04 10:55:57;;;;;;;2.55;1.45;;;;;;;;;;4992299;28;20026;-76
2023/08/04 10:58:23;;;;;;;3.95;1.40;;;;;;;;;;4974599;28;20022;-74
2023/08/04 11:00:49;;;;;;;2.63;1.52;;;;;;;;;;4994342;28;20025;-74
2023/08/04 11:03:33;;;;;;;1.20;0.95;;;;;;;;;;4994183;28;20027;-75
2023/08/04 11:06:00;;;;;;;1.00;0.90;;;;;;;;;;4979334;28;20505;-75
2023/08/04 11:08:26;;;;;;;1.33;0.85;;;;;;;;;;4989961;28;20054;-74
2023/08/04 11:10:53;;;;;;;1.15;0.98;;;23.40;69.50;;;;;;4971933;28;20052;-74
2023/08/04 11:13:21;;;;;;;3.13;0.85;;;23.50;71.50;;;;;;4994995;28;20077;-74
2023/08/04 11:15:48;;;;;;;1.77;1.00;;;23.70;66.70;;;;;;4969249;28;20076;-75
2023/08/04 11:18:15;;;;;;;2.35;0.80;;;23.90;68.20;;;;;;4991589;28;20026;-74
2023/08/04 11:20:42;;;;;;;0.88;0.80;;;;;;;;;;4992851;28;20105;-74
2023/08/04 11:23:09;;;;;;;3.05;1.25;;;23.00;65.90;;;;;;4992239;28;20023;-74
2023/08/04 11:25:36;;;;;;;0.65;0.60;;;23.00;66.10;;;;;;4991239;28;20074;-74
2023/08/04 11:28:03;;;;;;;1.02;0.80;;;23.00;67.10;;;;;;4990140;28;20486;-73
2023/08/04 11:30:28;;;;;;;0.85;0.73;;;22.90;66.40;;;;;;4985469;28;20034;-74
2023/08/04 11:32:54;;;;;;;3.47;1.02;;;22.90;64.70;;;;;;4980896;28;20449;-75
2023/08/04 11:35:20;;;;;;;1.80;0.80;;;;;;;;;;4990749;28;20391;-75
2023/08/04 11:37:46;;;;;;;0.75;0.70;;;;;;;;;;4994059;28;20093;-75
2023/08/04 11:40:22;;;;;;;4.82;1.00;;;;;;;;;;4995607;28;20027;-75
2023/08/04 11:42:48;;;;;;;0.90;0.50;;;;;;;;;;4995887;28;20426;-75
2023/08/04 11:45:14;;;;;;;2.65;0.75;;;23.30;63.60;;;;;;4995811;28;20038;-75
2023/08/04 11:47:40;;;;;;;1.63;0.80;;;23.40;62.30;;;;;;4996013;28;20449;-75
2023/08/04 11:50:08;;;;;;;0.88;0.60;;;23.50;63.40;;;;;;4996204;28;20505;-77
2023/08/04 11:52:37;;;;;;;0.85;0.80;;;23.80;62.10;;;;;;4996051;28;20035;-76
2023/08/04 11:55:04;;;;;;;0.50;0.40;;;24.00;61.20;;;;;;4995980;28;20033;-75
2023/08/04 11:57:30;;;;;;;0.65;0.50;;;24.20;60.20;;;;;;4995616;28;20502;-76
2023/08/04 11:59:57;;;;;;;0.55;0.43;;;24.50;59.20;;;;;;4996130;23;20051;-71
2023/08/04 12:02:23;;;;;;;1.75;0.68;;;24.50;57.30;;;;;;4975766;28;20019;-71
2023/08/04 12:05:09;;;;;;;0.73;0.52;;;24.40;57.30;;;;;;4974161;28;20038;-71
2023/08/04 12:07:35;;;;;;;1.10;0.70;;;24.30;58.40;;;;;;4975682;28;20545;-71
2023/08/04 12:10:01;;;;;;;2.47;0.50;;;24.20;59.30;;;;;;4974392;28;20039;-72
2023/08/04 12:12:40;;;;;;;0.50;0.50;;;24.10;61.20;;;;;;4975674;28;20030;-71
2023/08/04 12:15:06;;;;;;;1.08;0.80;;;23.70;60.30;;;;;;4975529;28;20096;-71
2023/08/04 12:17:40;;;;;;;2.15;1.00;;;23.40;61.10;;;;;;4975576;28;20037;-72
2023/08/04 12:20:08;;;;;;;1.65;0.73;;;23.40;60.60;;;;;;4975553;28;20023;-70
2023/08/04 12:22:35;;;;;;;2.53;1.10;;;23.40;60.20;;;;;;4975764;28;20019;-70
2023/08/04 12:25:03;;;;;;;2.17;0.93;;;23.60;60.50;;;;;;4975638;28;20068;-70
2023/08/04 12:27:29;;;;;;;0.80;0.80;;;23.90;59.90;;;;;;4973907;28;20037;-72
2023/08/04 12:29:54;;;;;;;0.88;0.68;;;24.00;57.30;;;;;;4973752;28;20057;-72
2023/08/04 12:32:20;;;;;;;3.63;1.67;;;24.10;57.70;;;;;;4975519;28;20106;-71
2023/08/04 12:34:46;;;;;;;2.45;1.25;;;24.00;60.50;;;;;;4975197;28;20046;-72
2023/08/04 12:37:12;;;;;;;2.58;1.50;;;;;;;;;;4975167;28;20078;-72
2023/08/04 12:39:38;;;;;;;2.65;1.58;;;;;;;;;;4975306;28;20023;-72
2023/08/04 12:42:04;;;;;;;2.33;1.23;;;;;;;;;;4973991;28;20470;-71
2023/08/04 12:44:30;;;;;;;1.85;1.33;;;;;;;;;;4975143;28;20026;-70
2023/08/04 12:46:56;;;;;;;1.85;1.25;;;;;;;;;;4974979;28;20027;-71
2023/08/04 12:49:22;;;;;;;2.05;1.23;;;;;;;;;;4974449;28;20042;-71
2023/08/04 12:51:48;;;;;;;1.65;1.30;;;;;;;;;;4975171;28;20038;-72
2023/08/04 12:54:14;;;;;;;2.55;1.50;;;23.80;61.60;;;;;;4975169;28;20027;-71
2023/08/04 12:56:40;;;;;;;2.40;1.70;;;23.80;61.80;;;;;;4974846;28;20049;-71
2023/08/04 12:59:06;;;;;;;2.17;1.50;;;24.00;61.10;;;;;;4973122;28;20761;-72
2023/08/04 13:01:31;;;;;;;3.17;1.52;;;23.80;60.60;;;;;;4974936;28;20027;-72
2023/08/04 13:03:57;;;;;;;2.35;1.65;;;23.80;61.10;;;;;;4973799;28;20027;-71
2023/08/04 13:06:23;;;;;;;2.85;1.20;;;23.90;60.90;;;;;;4974620;28;20034;-71
2023/08/04 13:08:48;;;;;;;2.40;1.38;;;24.00;60.60;;;;;;4973150;28;20486;-70
2023/08/04 13:11:17;;;;;;;1.70;1.27;;;24.20;59.80;;;;;;4974425;28;20033;-71
2023/08/04 13:13:42;;;;;;;2.58;1.05;;;24.50;59.50;;;;;;4974820;28;20038;-71
2023/08/04 13:16:11;;;;;;;1.75;0.90;;;24.90;57.90;;;;;;4974584;28;20386;-71
2023/08/04 13:18:37;;;;;;;1.70;1.20;;;25.40;55.60;;;;;;4974346;28;20023;-71
2023/08/04 13:21:06;;;;;;;3.10;1.40;;;25.70;53.60;;;;;;4974502;28;20497;-71
2023/08/04 13:23:32;;;;;;;2.00;1.10;;;25.60;54.90;;;;;;4976016;28;20029;-71
2023/08/04 13:26:07;;;;;;;1.85;1.25;;;25.50;54.40;;;;;;4974373;28;20490;-71
2023/08/04 13:28:33;;;;;;;2.35;1.33;;;25.50;54.00;;;;;;4972561;28;20031;-71
2023/08/04 13:30:59;;;;;;;1.77;1.00;;;25.70;54.50;;;;;;4974308;28;20102;-71
2023/08/04 13:33:28;;;;;;;2.60;1.38;;;25.80;53.00;;;;;;4974400;28;20030;-71
2023/08/04 13:35:54;;;;;;;1.50;1.17;;;25.70;51.80;;;;;;4974164;28;20406;-72
2023/08/04 13:38:20;;;;;;;2.05;0.80;;;26.00;51.80;;;;;;4973857;28;20487;-71
2023/08/04 13:40:45;;;;;;;1.42;1.30;;;25.90;50.60;;;;;;4974274;28;20114;-72
2023/08/04 13:43:11;;;;;;;0.70;0.70;;;26.00;50.90;;;;;;4974143;28;20026;-71
2023/08/04 13:45:37;;;;;;;1.38;1.08;;;26.20;50.50;;;;;;4974133;28;20034;-72
2023/08/04 13:48:03;;;;;;;2.88;1.10;;;26.10;49.50;;;;;;4973915;28;20079;-71
2023/08/04 13:50:28;;;;;;;1.13;0.98;;;26.20;50.30;;;;;;4974036;28;20035;-70
2023/08/04 13:52:54;;;;;;;2.40;1.25;;;26.20;50.60;;;;;;4974007;28;20129;-71
2023/08/04 13:55:20;;;;;;;1.38;1.20;;;26.50;50.90;;;;;;4973630;28;20521;-72
2023/08/04 13:57:45;;;;;;;1.73;1.40;;;26.30;51.00;;;;;;4973709;28;20129;-71
2023/08/04 14:00:12;;;;;;;2.90;1.30;;;26.10;51.00;;;;;;4973528;28;20034;-71
2023/08/04 14:02:38;;;;;;;1.60;1.00;;;25.90;50.30;;;;;;4973237;28;20070;-71
2023/08/04 14:05:04;;;;;;;1.45;1.10;;;25.60;51.10;;;;;;4973765;28;20470;-72
2023/08/04 14:07:30;;;;;;;2.70;1.27;;;25.50;52.10;;;;;;4973385;28;20372;-71
2023/08/04 14:09:56;;;;;;;1.30;1.00;;;;;;;;;;4973462;28;20054;-71
2023/08/04 14:12:24;;;;;;;1.00;0.85;;;;;;;;;;4973540;28;20023;-72
2023/08/04 14:14:53;;;;;;;0.70;0.70;;;;;;;;;;4973620;28;20019;-72
2023/08/04 14:17:19;;;;;;;0.90;0.60;;;;;;;;;;4972008;28;20026;-70
2023/08/04 14:19:45;;;;;;;1.02;0.80;;;;;;;;;;4973371;28;20341;-71